Time;durP1;ratioP1;P1;durP2;ratioP2;P2;SDS_P1;SDS_P2;PMS_P1;PMS_P2;Temp;Humidity;BMP_temperature;BMP_pressure;BME280_temperature;BME280_humidity;BME280_pressure;Samples;Min_cycle;Max_cycle;Signal;HPM_P1;HPM_P2
2022/01/25 00:31:17;;;;;;;15.15;8.25;;;3.90;99.90;;;;;;6227433;23;20009;-83
2022/01/25 00:33:51;;;;;;;14.45;8.20;;;3.90;99.90;;;;;;6215770;23;20075;-83
2022/01/25 00:36:18;;;;;;;14.38;8.60;;;3.90;99.90;;;;;;6215568;23;20005;-83
2022/01/25 00:38:44;;;;;;;14.63;8.57;;;3.90;99.90;;;;;;6215702;23;20004;-83
2022/01/25 00:41:10;;;;;;;17.75;8.40;;;3.90;99.90;;;;;;6215631;23;20491;-83
2022/01/25 00:43:36;;;;;;;14.30;8.20;;;3.90;99.90;;;;;;6215651;23;20000;-83
2022/01/25 00:46:06;;;;;;;14.90;8.52;;;3.90;99.90;;;;;;6217170;23;20035;-83
2022/01/25 00:48:58;;;;;;;13.00;7.93;;;3.90;99.90;;;;;;6215357;23;20070;-83
2022/01/25 00:54:09;;;;;;;15.30;8.85;;;3.90;99.90;;;;;;6227580;23;20036;-84
2022/01/25 00:56:38;;;;;;;12.57;8.00;;;3.90;99.90;;;;;;6215401;23;20004;-83
2022/01/25 00:59:07;;;;;;;12.00;7.60;;;3.90;99.90;;;;;;6215459;23;20000;-83
2022/01/25 01:01:34;;;;;;;15.75;8.43;;;3.90;99.90;;;;;;6215449;23;20001;-83
2022/01/25 01:03:59;;;;;;;14.07;8.10;;;3.90;99.90;;;;;;6216999;23;20009;-83
2022/01/25 01:06:26;;;;;;;16.23;7.45;;;3.90;99.90;;;;;;6215289;23;20430;-83
2022/01/25 01:08:52;;;;;;;15.10;8.05;;;3.80;99.90;;;;;;6216966;23;20050;-83
2022/01/25 01:11:26;;;;;;;11.63;7.78;;;3.80;99.90;;;;;;6215397;23;20430;-83
2022/01/25 01:43:15;;;;;;;12.85;8.18;;;3.80;99.90;;;;;;6227124;23;20000;-83
2022/01/25 01:45:56;;;;;;;13.45;7.43;;;3.80;99.90;;;;;;6215079;23;20000;-83
2022/01/25 01:48:38;;;;;;;13.35;8.13;;;3.80;99.90;;;;;;6219912;23;20023;-83
2022/01/25 01:51:14;;;;;;;15.05;8.00;;;3.80;99.90;;;;;;6220095;23;20005;-83
2022/01/25 01:53:41;;;;;;;12.18;7.50;;;3.80;99.90;;;;;;6220139;23;20004;-83
2022/01/25 01:56:06;;;;;;;13.48;8.02;;;3.70;99.90;;;;;;6219813;23;20004;-83
2022/01/25 01:58:35;;;;;;;11.90;8.25;;;3.80;99.90;;;;;;6220685;23;20010;-83
2022/01/25 02:01:04;;;;;;;10.55;7.55;;;3.80;99.90;;;;;;6219923;23;20004;-83
2022/01/25 02:03:29;;;;;;;15.80;7.63;;;3.70;99.90;;;;;;6219864;23;19999;-83
2022/01/25 02:05:55;;;;;;;12.88;7.75;;;3.70;99.90;;;;;;6219808;23;20470;-83
2022/01/25 02:08:21;;;;;;;12.07;7.50;;;3.70;99.90;;;;;;6219825;23;20054;-83
2022/01/25 02:10:47;;;;;;;12.15;8.52;;;3.70;99.90;;;;;;6219760;23;20008;-83
2022/01/25 02:13:12;;;;;;;11.90;8.00;;;3.70;99.90;;;;;;6246978;23;20001;-83
2022/01/25 02:15:44;;;;;;;12.13;7.85;;;3.70;99.90;;;;;;6219617;23;20008;-83
2022/01/25 02:23:40;;;;;;;14.73;7.85;;;3.70;99.90;;;;;;6247022;23;20441;-83
2022/01/25 02:26:08;;;;;;;12.15;7.55;;;3.70;99.90;;;;;;6219667;23;20437;-83
2022/01/25 02:28:39;;;;;;;12.75;7.80;;;3.70;99.90;;;;;;6219702;23;20004;-83
2022/01/25 02:31:07;;;;;;;10.73;7.85;;;3.70;99.90;;;;;;6246797;23;20061;-84
2022/01/25 02:33:32;;;;;;;14.52;7.82;;;3.70;99.90;;;;;;6246392;23;20016;-83
2022/01/25 02:36:03;;;;;;;10.95;7.32;;;3.70;99.90;;;;;;6219453;23;20464;-83
2022/01/25 02:38:30;;;;;;;11.15;7.47;;;3.70;99.90;;;;;;6219635;23;20031;-84
2022/01/25 02:40:57;;;;;;;14.35;8.05;;;3.70;99.90;;;;;;6219544;23;20001;-83
2022/01/25 02:43:24;;;;;;;13.85;7.80;;;3.70;99.90;;;;;;6219536;23;20000;-84
2022/01/25 02:48:57;;;;;;;10.80;7.70;;;3.70;99.90;;;;;;6249254;23;20444;-83
2022/01/25 02:51:28;;;;;;;15.35;7.45;;;3.60;99.90;;;;;;6219373;23;20031;-84
2022/01/25 02:53:54;;;;;;;12.80;7.90;;;3.70;99.90;;;;;;6219506;23;20004;-84
2022/01/25 02:56:20;;;;;;;14.63;8.27;;;3.70;99.90;;;;;;6219261;23;20035;-83
2022/01/25 02:58:46;;;;;;;12.10;7.88;;;3.60;99.90;;;;;;6219419;23;20007;-83
2022/01/25 03:01:12;;;;;;;11.25;7.68;;;3.60;99.90;;;;;;6219358;23;20000;-84
2022/01/25 03:03:38;;;;;;;11.73;7.70;;;3.60;99.90;;;;;;6219389;23;20083;-84
2022/01/25 03:06:05;;;;;;;12.07;7.55;;;3.60;99.90;;;;;;6246109;23;20010;-84
2022/01/25 03:08:31;;;;;;;11.73;7.57;;;3.60;99.90;;;;;;6219330;23;20035;-83
2022/01/25 03:10:57;;;;;;;11.38;7.53;;;3.60;99.90;;;;;;6246164;23;20004;-84
2022/01/25 03:13:29;;;;;;;11.25;7.32;;;3.60;99.90;;;;;;6219255;23;20011;-83
2022/01/25 03:16:00;;;;;;;11.68;7.03;;;3.60;99.90;;;;;;6219235;23;20099;-83
2022/01/25 03:21:16;;;;;;;16.13;7.47;;;3.60;99.90;;;;;;6256332;23;20336;-84
2022/01/25 03:23:42;;;;;;;12.35;6.90;;;3.60;99.90;;;;;;6219342;23;20032;-84
2022/01/25 03:26:08;;;;;;;12.35;7.30;;;3.60;99.90;;;;;;6246162;23;20336;-84
2022/01/25 03:28:34;;;;;;;13.07;7.50;;;3.60;99.90;;;;;;6246452;23;19996;-83
2022/01/25 03:31:00;;;;;;;12.57;7.47;;;3.60;99.90;;;;;;6219293;23;20035;-84
2022/01/25 03:33:26;;;;;;;10.50;6.60;;;3.60;99.90;;;;;;6246154;23;20011;-84
2022/01/25 03:35:52;;;;;;;10.77;7.32;;;3.60;99.90;;;;;;6219149;23;20004;-84
2022/01/25 03:38:18;;;;;;;11.88;7.40;;;3.50;99.90;;;;;;6219226;23;20380;-84
2022/01/25 03:40:45;;;;;;;12.63;7.82;;;3.50;99.90;;;;;;6245988;23;19992;-84
2022/01/25 03:43:13;;;;;;;12.20;7.15;;;3.50;99.90;;;;;;6219145;23;20004;-84
2022/01/25 03:45:42;;;;;;;15.25;7.38;;;3.50;99.90;;;;;;6220882;23;20061;-84
2022/01/25 03:50:39;;;;;;;11.27;7.60;;;3.50;99.90;;;;;;6218192;23;20008;-84
2022/01/25 03:53:05;;;;;;;14.07;7.20;;;3.50;99.90;;;;;;6216136;23;20009;-84
2022/01/25 03:55:31;;;;;;;14.40;8.02;;;3.50;99.90;;;;;;6215975;23;20009;-84
2022/01/25 03:57:57;;;;;;;10.93;7.22;;;3.50;99.90;;;;;;6216093;23;20004;-84
2022/01/25 04:00:23;;;;;;;11.43;7.75;;;3.50;99.90;;;;;;6216085;23;20000;-84
2022/01/25 04:02:54;;;;;;;12.80;7.18;;;3.50;99.90;;;;;;6216016;23;20008;-84
2022/01/25 04:05:35;;;;;;;12.70;7.40;;;3.50;99.90;;;;;;6217513;23;20094;-84
2022/01/25 04:08:01;;;;;;;11.65;7.70;;;3.50;99.90;;;;;;6215991;23;20008;-84
2022/01/25 04:10:27;;;;;;;10.75;7.22;;;3.50;99.90;;;;;;6215943;23;20004;-84
2022/01/25 04:12:53;;;;;;;10.48;7.25;;;3.50;99.90;;;;;;6215944;23;20016;-84
2022/01/25 04:15:19;;;;;;;13.48;6.88;;;3.50;99.90;;;;;;6216151;23;20437;-84
2022/01/25 04:17:49;;;;;;;11.25;7.13;;;3.50;99.90;;;;;;6215865;23;20000;-84
2022/01/25 04:20:21;;;;;;;11.85;7.10;;;3.50;99.90;;;;;;6215946;23;20031;-84
2022/01/25 04:25:31;;;;;;;10.63;7.00;;;3.50;99.90;;;;;;6217781;23;20062;-84
2022/01/25 04:27:56;;;;;;;11.35;7.40;;;3.40;99.90;;;;;;6215762;23;20005;-84
2022/01/25 04:30:22;;;;;;;12.70;7.15;;;3.40;99.90;;;;;;6215821;23;20009;-84
2022/01/25 04:32:53;;;;;;;13.15;7.85;;;3.40;99.90;;;;;;6215923;23;20334;-84
2022/01/25 04:49:11;;;;;;;12.20;8.15;;;3.40;99.90;;;;;;6242789;23;20077;-84
2022/01/25 04:52:01;;;;;;;12.70;8.25;;;3.40;99.90;;;;;;6220626;23;20341;-85
2022/01/25 05:04:56;;;;;;;10.30;7.07;;;3.40;99.90;;;;;;6247597;23;20008;-85
2022/01/25 05:07:32;;;;;;;12.38;8.18;;;3.40;99.90;;;;;;6220425;23;20425;-85
2022/01/25 05:09:59;;;;;;;12.38;7.85;;;3.30;99.90;;;;;;6220500;23;20008;-84
2022/01/25 05:15:58;;;;;;;13.48;7.80;;;3.30;99.90;;;;;;6257408;23;20450;-85
2022/01/25 05:23:32;;;;;;;12.77;8.15;;;3.30;99.90;;;;;;6247582;23;20054;-84
2022/01/25 05:25:57;;;;;;;14.63;8.25;;;3.30;99.90;;;;;;6221349;23;20004;-85
2022/01/25 05:28:23;;;;;;;15.35;9.02;;;3.30;99.90;;;;;;6220182;23;20009;-85
2022/01/25 05:30:50;;;;;;;11.27;7.78;;;3.30;99.90;;;;;;6220161;23;20036;-85
2022/01/25 05:33:16;;;;;;;15.55;8.55;;;3.30;99.90;;;;;;6220155;23;20004;-85
2022/01/25 05:35:42;;;;;;;15.82;9.00;;;3.30;99.90;;;;;;6220029;23;20457;-84
2022/01/25 05:38:07;;;;;;;13.25;8.52;;;3.30;99.90;;;;;;6220061;23;20000;-84
2022/01/25 05:40:45;;;;;;;15.15;8.88;;;3.30;99.90;;;;;;6220374;23;20032;-84
2022/01/25 05:48:14;;;;;;;14.38;8.80;;;3.30;99.90;;;;;;6246743;23;20357;-85
2022/01/25 05:50:40;;;;;;;14.05;9.23;;;3.30;99.90;;;;;;6220119;23;20026;-85
2022/01/25 05:53:06;;;;;;;15.32;9.18;;;3.30;99.90;;;;;;6246870;23;20004;-85
2022/01/25 05:55:31;;;;;;;13.23;9.02;;;3.30;99.90;;;;;;6220159;23;20001;-85
2022/01/25 05:57:57;;;;;;;15.85;9.65;;;3.30;99.90;;;;;;6247122;23;20007;-85
2022/01/25 06:00:23;;;;;;;16.63;9.80;;;3.30;99.90;;;;;;6219923;23;20011;-85
2022/01/25 06:02:53;;;;;;;17.60;9.82;;;3.20;99.90;;;;;;6219870;23;20046;-85
2022/01/25 06:05:19;;;;;;;13.90;8.85;;;3.30;99.90;;;;;;6219804;23;20004;-85
2022/01/25 06:07:45;;;;;;;16.20;9.73;;;3.30;99.90;;;;;;6219899;23;20008;-85
2022/01/25 06:10:10;;;;;;;19.77;10.00;;;3.20;99.90;;;;;;6219891;23;20008;-85
2022/01/25 06:12:36;;;;;;;18.23;10.05;;;3.20;99.90;;;;;;6219807;23;20341;-85
2022/01/25 06:15:03;;;;;;;18.77;9.98;;;3.20;99.90;;;;;;6219790;23;20011;-85
2022/01/25 06:17:28;;;;;;;17.55;9.15;;;3.20;99.90;;;;;;6220021;23;20004;-85
2022/01/25 06:19:54;;;;;;;15.68;9.63;;;3.20;99.90;;;;;;6219855;23;20333;-85
2022/01/25 06:22:20;;;;;;;15.93;10.02;;;3.20;99.90;;;;;;6219739;23;20035;-85
2022/01/25 06:24:45;;;;;;;18.08;10.25;;;3.20;99.90;;;;;;6246579;23;20004;-85
2022/01/25 06:27:11;;;;;;;15.52;9.85;;;3.20;99.90;;;;;;6219651;23;20008;-86
2022/01/25 06:29:37;;;;;;;14.98;9.57;;;3.20;99.90;;;;;;6219600;23;20340;-85
2022/01/25 06:32:03;;;;;;;19.60;10.55;;;3.20;99.90;;;;;;6219719;23;20000;-85
2022/01/25 06:34:29;;;;;;;17.58;10.77;;;3.20;99.90;;;;;;6219472;23;20004;-85
2022/01/25 06:36:54;;;;;;;16.00;10.45;;;3.20;99.90;;;;;;6219591;23;20008;-85
2022/01/25 06:39:20;;;;;;;17.23;10.48;;;3.20;99.90;;;;;;6246568;23;20329;-85
2022/01/25 06:41:47;;;;;;;16.33;10.07;;;3.20;99.90;;;;;;6219472;23;20032;-85
2022/01/25 06:44:12;;;;;;;18.02;11.18;;;3.20;99.90;;;;;;6219640;23;20004;-85
2022/01/25 06:46:38;;;;;;;22.27;10.43;;;3.20;99.90;;;;;;6219596;23;20095;-85
2022/01/25 06:49:04;;;;;;;15.80;9.90;;;3.20;99.90;;;;;;6214308;23;20070;-86
2022/01/25 06:51:30;;;;;;;16.25;10.07;;;3.20;99.90;;;;;;6214503;23;20008;-85
2022/01/25 06:53:57;;;;;;;16.70;10.07;;;3.20;99.90;;;;;;6214399;23;20012;-86
2022/01/25 06:56:23;;;;;;;17.00;10.85;;;3.10;99.90;;;;;;6214284;23;20004;-86
2022/01/25 06:58:48;;;;;;;16.23;10.02;;;3.20;99.90;;;;;;6214373;23;20000;-86
2022/01/25 07:01:14;;;;;;;19.10;10.60;;;3.20;99.90;;;;;;6214431;23;20319;-86
2022/01/25 07:03:40;;;;;;;16.95;10.60;;;3.10;99.90;;;;;;6214361;23;20004;-85
2022/01/25 07:06:05;;;;;;;16.98;10.43;;;3.10;99.90;;;;;;6214279;23;20004;-86
2022/01/25 07:08:32;;;;;;;16.40;10.35;;;3.10;99.90;;;;;;6216264;23;20000;-85
2022/01/25 07:11:00;;;;;;;16.83;10.68;;;3.10;99.90;;;;;;6214366;23;20012;-85
2022/01/25 07:13:26;;;;;;;16.70;10.32;;;3.10;99.90;;;;;;6215731;23;20004;-85
2022/01/25 07:15:51;;;;;;;19.17;10.63;;;3.10;99.90;;;;;;6214200;23;20468;-85
2022/01/25 07:18:18;;;;;;;16.35;10.75;;;3.10;99.90;;;;;;6214237;23;20428;-85
2022/01/25 07:20:44;;;;;;;17.90;11.23;;;3.10;99.90;;;;;;6214182;23;20460;-85
2022/01/25 07:23:10;;;;;;;18.90;10.35;;;3.10;99.90;;;;;;6215872;23;19996;-85
2022/01/25 07:25:35;;;;;;;18.05;11.02;;;3.10;99.90;;;;;;6214293;23;20016;-86
2022/01/25 07:28:01;;;;;;;17.25;10.60;;;3.10;99.90;;;;;;6214244;23;20023;-86
2022/01/25 07:30:27;;;;;;;18.10;10.90;;;3.10;99.90;;;;;;6214241;23;20091;-85
2022/01/25 07:32:53;;;;;;;17.15;10.20;;;3.10;99.90;;;;;;6214218;23;20007;-85
2022/01/25 07:35:18;;;;;;;19.30;11.75;;;3.10;99.90;;;;;;6214060;23;20005;-85
2022/01/25 07:37:44;;;;;;;17.77;11.15;;;3.10;99.90;;;;;;6214169;23;20001;-85
2022/01/25 07:40:11;;;;;;;17.85;11.60;;;3.20;99.90;;;;;;6216139;23;20418;-85
2022/01/25 07:42:39;;;;;;;19.08;10.88;;;3.30;99.90;;;;;;6214184;23;19997;-84
2022/01/25 07:45:09;;;;;;;19.85;11.38;;;3.60;99.90;;;;;;6214162;23;20449;-85
2022/01/25 07:47:36;;;;;;;17.83;10.95;;;3.90;99.90;;;;;;6213920;23;20016;-85
2022/01/25 07:50:04;;;;;;;16.35;10.38;;;4.20;99.90;;;;;;6214202;23;20027;-85
2022/01/25 07:52:29;;;;;;;17.45;11.05;;;4.50;99.90;;;;;;6214165;23;19997;-84
2022/01/25 07:54:55;;;;;;;18.08;11.05;;;4.80;99.90;;;;;;6214093;23;20001;-84
2022/01/25 07:57:21;;;;;;;17.23;10.50;;;5.10;99.90;;;;;;6214045;23;20021;-84
2022/01/25 07:59:47;;;;;;;20.38;11.30;;;5.30;99.90;;;;;;6215675;23;20329;-84
2022/01/25 08:02:16;;;;;;;18.10;10.95;;;5.60;99.90;;;;;;6214016;23;20001;-84
2022/01/25 08:04:42;;;;;;;18.52;11.20;;;5.90;99.90;;;;;;6215636;23;20003;-84
2022/01/25 08:07:07;;;;;;;16.92;10.88;;;6.20;99.90;;;;;;6213957;23;20087;-84
2022/01/25 08:09:33;;;;;;;19.30;11.60;;;6.40;99.90;;;;;;6214039;23;20334;-84
2022/01/25 08:11:59;;;;;;;16.50;10.85;;;6.60;99.90;;;;;;6215553;23;19997;-84
2022/01/25 08:14:25;;;;;;;17.35;11.45;;;6.80;99.90;;;;;;6214004;23;20009;-84
2022/01/25 08:16:51;;;;;;;18.48;10.98;;;6.90;99.90;;;;;;6213928;23;20040;-84
2022/01/25 08:19:19;;;;;;;21.08;12.00;;;7.10;99.90;;;;;;6215590;23;20441;-84
2022/01/25 08:21:45;;;;;;;20.52;11.73;;;7.50;99.90;;;;;;6213938;23;20003;-84
2022/01/25 08:24:13;;;;;;;16.73;11.20;;;7.80;99.90;;;;;;6213924;23;20004;-84
2022/01/25 08:26:40;;;;;;;21.15;11.20;;;8.10;99.90;;;;;;6214008;23;20009;-84
2022/01/25 08:29:07;;;;;;;20.73;11.63;;;8.40;99.90;;;;;;6215856;23;20000;-84
2022/01/25 08:31:33;;;;;;;18.83;11.82;;;8.70;99.90;;;;;;6214712;23;20059;-84
2022/01/25 08:33:59;;;;;;;19.17;11.38;;;8.90;99.90;;;;;;6215764;23;20012;-84
2022/01/25 08:36:26;;;;;;;16.98;11.38;;;9.30;99.90;;;;;;6215546;23;20398;-84
2022/01/25 08:38:53;;;;;;;17.63;11.52;;;9.50;99.90;;;;;;6215593;23;20008;-84
2022/01/25 08:41:18;;;;;;;18.48;11.57;;;9.60;99.90;;;;;;6215670;23;20024;-84
2022/01/25 08:43:44;;;;;;;16.17;11.45;;;10.00;99.90;;;;;;6215552;23;20001;-84
2022/01/25 08:46:11;;;;;;;17.88;11.23;;;10.30;99.90;;;;;;6215927;23;20008;-84
2022/01/25 08:48:37;;;;;;;15.75;10.88;;;10.50;99.90;;;;;;6215352;23;20074;-83
2022/01/25 08:51:04;;;;;;;16.65;10.98;;;10.70;99.90;;;;;;6215552;23;20422;-84
2022/01/25 08:53:29;;;;;;;17.52;10.60;;;10.90;99.90;;;;;;6215540;23;20345;-84
2022/01/25 08:55:55;;;;;;;17.15;10.88;;;11.10;99.90;;;;;;6215444;23;20032;-84
2022/01/25 08:58:21;;;;;;;15.05;10.23;;;11.40;99.90;;;;;;6215631;23;20009;-84
2022/01/25 09:00:47;;;;;;;18.02;10.32;;;11.70;99.90;;;;;;6215434;23;20440;-84
2022/01/25 09:03:13;;;;;;;15.57;10.10;;;11.90;99.90;;;;;;6215446;23;20004;-83
2022/01/25 09:05:39;;;;;;;19.08;10.38;;;12.10;99.90;;;;;;6215313;23;20087;-84
2022/01/25 09:08:06;;;;;;;17.10;10.43;;;12.20;99.90;;;;;;6215373;23;20472;-84
2022/01/25 09:10:33;;;;;;;16.77;10.45;;;12.30;99.90;;;;;;6215379;23;20009;-84
2022/01/25 09:12:59;;;;;;;15.27;10.40;;;12.40;99.90;;;;;;6217012;23;20334;-85
2022/01/25 09:15:25;;;;;;;15.63;10.43;;;12.60;99.50;;;;;;6215266;23;20004;-85
2022/01/25 09:17:51;;;;;;;16.08;10.88;;;12.60;99.10;;;;;;6216929;23;20004;-85
2022/01/25 09:20:17;;;;;;;12.75;10.10;;;12.70;98.90;;;;;;6215323;23;20311;-85
2022/01/25 09:22:43;;;;;;;15.93;10.02;;;12.50;98.70;;;;;;6215309;23;20055;-85
2022/01/25 09:25:11;;;;;;;16.85;10.02;;;12.30;99.00;;;;;;6215291;23;20059;-85
2022/01/25 09:27:37;;;;;;;13.05;9.70;;;11.60;99.50;;;;;;6215262;23;20370;-85
2022/01/25 09:30:04;;;;;;;16.75;10.10;;;10.80;99.90;;;;;;6215221;23;20016;-84
2022/01/25 09:32:29;;;;;;;18.45;10.63;;;10.40;99.90;;;;;;6216730;23;20314;-85
2022/01/25 09:34:55;;;;;;;14.95;10.30;;;10.50;99.90;;;;;;6215156;23;20007;-85
2022/01/25 09:37:20;;;;;;;15.05;10.00;;;11.00;99.90;;;;;;6215026;23;20008;-85
2022/01/25 09:39:46;;;;;;;27.73;16.33;;;11.40;99.90;;;;;;6215498;23;20460;-87
2022/01/25 09:42:12;;;;;;;163.77;23.88;;;12.90;99.90;;;;;;6214837;23;20001;-85
2022/01/25 09:44:40;;;;;;;125.45;22.02;;;12.20;98.90;;;;;;6215023;23;20020;-85
2022/01/25 09:47:07;;;;;;;101.10;20.48;;;12.00;99.30;;;;;;6216786;23;20091;-85
2022/01/25 09:49:34;;;;;;;121.93;20.13;;;12.10;99.20;;;;;;6220068;23;20011;-85
2022/01/25 09:52:03;;;;;;;100.78;19.65;;;12.10;99.00;;;;;;6220127;23;20000;-85
2022/01/25 09:54:31;;;;;;;79.80;17.92;;;12.40;98.90;;;;;;6219856;23;20011;-85
2022/01/25 09:56:57;;;;;;;85.85;17.83;;;12.60;98.70;;;;;;6219875;23;20005;-85
2022/01/25 09:59:26;;;;;;;83.82;18.42;;;12.50;98.60;;;;;;6219852;23;20004;-85
2022/01/25 10:01:52;;;;;;;67.35;17.58;;;12.40;98.80;;;;;;6219801;23;20059;-85
2022/01/25 10:04:36;;;;;;;61.53;17.50;;;12.00;99.10;;;;;;6246732;23;20447;-85
2022/01/25 10:07:04;;;;;;;78.80;15.93;;;11.50;99.60;;;;;;6219701;23;20004;-85
2022/01/25 10:09:32;;;;;;;69.35;16.38;;;11.00;99.90;;;;;;6246663;23;20000;-84
2022/01/25 10:12:14;;;;;;;57.13;15.70;;;10.70;99.90;;;;;;6219865;23;20341;-85
2022/01/25 10:15:14;;;;;;;49.25;15.60;;;10.50;99.90;;;;;;6220908;23;20413;-85
2022/01/25 10:17:42;;;;;;;43.15;13.93;;;10.00;99.90;;;;;;6212338;23;20015;-84
2022/01/25 10:20:49;;;;;;;56.78;14.70;;;9.80;99.90;;;;;;6219613;23;20341;-85
2022/01/25 10:23:19;;;;;;;42.17;14.57;;;9.50;99.90;;;;;;6212709;23;20091;-85
2022/01/25 10:25:48;;;;;;;47.38;14.52;;;9.40;99.90;;;;;;6219659;23;20087;-85
2022/01/25 10:28:20;;;;;;;37.70;13.52;;;9.20;99.90;;;;;;6246475;23;20071;-84
2022/01/25 10:30:49;;;;;;;34.42;12.70;;;9.00;99.90;;;;;;6246851;23;19996;-85
2022/01/25 10:33:39;;;;;;;37.45;12.65;;;8.90;99.90;;;;;;6219441;23;20008;-85
2022/01/25 10:36:24;;;;;;;34.10;12.43;;;8.90;99.90;;;;;;6246410;23;20004;-84
2022/01/25 10:38:54;;;;;;;26.95;13.00;;;8.70;99.90;;;;;;6219668;23;20372;-84
2022/01/25 10:41:23;;;;;;;32.13;13.65;;;8.70;99.90;;;;;;6246820;23;20001;-84
2022/01/25 10:43:52;;;;;;;33.22;13.55;;;8.50;99.90;;;;;;6219588;23;20441;-84
2022/01/25 10:46:23;;;;;;;31.70;12.23;;;8.20;99.90;;;;;;6246414;23;20011;-84
2022/01/25 10:48:57;;;;;;;27.80;11.80;;;8.10;99.90;;;;;;6246252;23;20058;-84
2022/01/25 10:51:34;;;;;;;;;;;8.00;99.90;;;;;;6220085;23;20459;-84
2022/01/25 10:54:17;;;;;;;26.08;10.82;;;8.00;99.90;;;;;;6219215;23;19900;-84
2022/01/25 10:56:47;;;;;;;25.05;11.80;;;7.90;99.90;;;;;;6219349;23;20008;-84
2022/01/25 10:59:22;;;;;;;24.83;11.50;;;7.90;99.90;;;;;;6219433;23;20455;-84
2022/01/25 11:02:03;;;;;;;21.63;10.88;;;7.80;99.90;;;;;;6219444;23;20008;-85
2022/01/25 11:04:33;;;;;;;23.63;10.43;;;7.80;99.90;;;;;;6219486;23;20008;-84
2022/01/25 11:07:00;;;;;;;21.92;11.05;;;7.70;99.90;;;;;;6246500;23;20004;-84
2022/01/25 11:09:34;;;;;;;20.75;11.27;;;7.60;99.90;;;;;;6246200;23;20004;-84
2022/01/25 11:12:00;;;;;;;22.10;11.55;;;7.60;99.90;;;;;;6219423;23;20004;-84
2022/01/25 11:17:11;;;;;;;18.77;10.80;;;7.50;99.90;;;;;;6246109;23;20337;-83
2022/01/25 11:19:37;;;;;;;22.02;10.80;;;7.50;99.90;;;;;;6219293;23;20004;-84
2022/01/25 11:22:04;;;;;;;19.45;10.43;;;7.40;99.90;;;;;;6219172;23;20340;-85
2022/01/25 11:24:32;;;;;;;16.73;9.73;;;7.50;99.90;;;;;;6219097;23;20054;-85
2022/01/25 11:27:02;;;;;;;21.05;10.40;;;7.50;99.90;;;;;;6219148;23;20333;-84
2022/01/25 11:29:29;;;;;;;16.63;9.88;;;7.50;99.90;;;;;;6219126;23;20058;-84
2022/01/25 11:32:02;;;;;;;17.85;9.52;;;7.40;99.90;;;;;;6219086;23;20054;-84
2022/01/25 11:34:29;;;;;;;19.67;10.57;;;7.40;99.90;;;;;;6220081;23;20027;-84
2022/01/25 11:37:01;;;;;;;16.83;10.02;;;7.40;99.90;;;;;;6219048;23;20008;-83
2022/01/25 11:39:28;;;;;;;17.02;9.90;;;7.40;99.90;;;;;;6245869;23;20000;-84
2022/01/25 11:42:10;;;;;;;16.85;9.65;;;7.40;99.90;;;;;;6218968;23;20054;-84
2022/01/25 11:44:53;;;;;;;16.63;10.02;;;7.40;99.90;;;;;;6220315;23;20038;-84
2022/01/25 11:47:21;;;;;;;14.82;8.55;;;7.40;99.90;;;;;;6246150;23;20429;-84
2022/01/25 11:49:59;;;;;;;16.77;8.93;;;7.40;99.90;;;;;;6218969;23;20004;-84
2022/01/25 11:52:27;;;;;;;14.00;8.80;;;7.40;99.90;;;;;;6218997;23;20087;-84
2022/01/25 11:55:12;;;;;;;15.38;9.30;;;7.30;99.90;;;;;;6218930;23;20043;-84
2022/01/25 11:57:59;;;;;;;13.57;9.38;;;7.30;99.90;;;;;;6218928;23;20039;-84
2022/01/25 12:00:39;;;;;;;13.50;8.98;;;7.30;99.90;;;;;;6218851;23;20019;-84
2022/01/25 12:03:26;;;;;;;14.52;8.73;;;7.30;99.90;;;;;;6218859;23;20032;-84
2022/01/25 12:05:53;;;;;;;12.88;8.38;;;7.30;99.90;;;;;;6219823;23;20004;-83
2022/01/25 12:08:27;;;;;;;14.63;9.20;;;7.30;99.90;;;;;;6247724;23;20067;-83
2022/01/25 12:10:58;;;;;;;15.18;8.13;;;7.30;99.90;;;;;;6220909;23;20007;-84
2022/01/25 12:13:31;;;;;;;14.05;8.73;;;7.30;99.90;;;;;;6220825;23;20043;-83
2022/01/25 12:16:22;;;;;;;14.68;9.18;;;7.20;99.90;;;;;;6220725;23;20030;-84
2022/01/25 12:18:57;;;;;;;12.93;7.97;;;7.20;99.90;;;;;;6220868;23;20074;-83
2022/01/25 12:21:49;;;;;;;15.43;8.48;;;7.20;99.90;;;;;;6220801;23;20310;-84
2022/01/25 12:24:37;;;;;;;12.38;7.75;;;7.20;99.90;;;;;;6220738;23;20000;-84
2022/01/25 12:30:11;;;;;;;13.40;7.57;;;7.10;99.90;;;;;;6221893;23;20004;-84
2022/01/25 12:32:50;;;;;;;13.73;8.75;;;7.10;99.90;;;;;;6220772;23;20025;-84
2022/01/25 12:35:19;;;;;;;12.35;8.40;;;7.10;99.90;;;;;;6220633;23;20079;-84
2022/01/25 12:37:53;;;;;;;15.02;8.23;;;7.10;99.90;;;;;;6247838;23;19996;-86
2022/01/25 12:40:25;;;;;;;;;;;7.10;99.90;;;;;;6248151;23;19996;-85
2022/01/25 12:43:00;;;;;;;15.75;7.90;;;7.10;99.90;;;;;;6220709;23;19937;-86
2022/01/25 12:45:29;;;;;;;14.82;8.43;;;7.10;99.90;;;;;;6220762;23;20079;-86
2022/01/25 12:48:02;;;;;;;12.70;8.13;;;7.10;99.90;;;;;;6220424;23;20317;-85
2022/01/25 12:50:29;;;;;;;16.07;8.53;;;7.00;99.90;;;;;;6220749;23;20008;-86
2022/01/25 12:52:57;;;;;;;9.80;7.00;;;7.10;99.90;;;;;;6220598;23;20038;-86
2022/01/25 12:55:30;;;;;;;12.10;8.30;;;7.00;99.90;;;;;;6220368;23;20004;-86
2022/01/25 12:57:57;;;;;;;12.60;7.75;;;7.00;99.90;;;;;;6220668;23;20000;-85
2022/01/25 13:00:30;;;;;;;13.25;7.97;;;7.00;99.90;;;;;;6220551;23;20432;-85
2022/01/25 13:03:17;;;;;;;10.32;7.70;;;7.00;99.90;;;;;;6220597;23;20066;-86
2022/01/25 13:05:49;;;;;;;12.63;8.10;;;7.10;99.90;;;;;;6247219;23;20027;-86
2022/01/25 13:08:35;;;;;;;10.80;7.32;;;7.00;99.90;;;;;;6220563;23;20387;-86
2022/01/25 13:11:49;;;;;;;13.48;8.13;;;7.00;99.90;;;;;;6247329;23;20440;-86
2022/01/25 13:16:59;;;;;;;13.07;8.27;;;7.10;99.90;;;;;;6257049;23;20075;-86
2022/01/25 13:19:31;;;;;;;18.70;8.02;;;7.00;99.90;;;;;;6220308;23;20436;-85
2022/01/25 13:22:24;;;;;;;12.23;7.70;;;7.00;99.90;;;;;;6220268;23;20368;-85
2022/01/25 13:24:59;;;;;;;13.77;8.68;;;7.10;99.90;;;;;;6229199;23;20008;-86
2022/01/25 13:27:35;;;;;;;17.80;8.90;;;7.00;99.90;;;;;;6220361;23;20498;-85
2022/01/25 13:32:52;;;;;;;14.73;8.73;;;7.10;99.90;;;;;;6247458;23;20014;-86
2022/01/25 13:35:33;;;;;;;13.18;7.82;;;7.10;99.90;;;;;;6220166;23;20004;-85
2022/01/25 13:38:02;;;;;;;16.13;8.60;;;7.10;99.90;;;;;;6247114;23;20359;-85
2022/01/25 13:40:36;;;;;;;12.75;8.48;;;7.10;99.90;;;;;;6220174;23;20011;-86
2022/01/25 13:46:05;;;;;;;15.18;8.65;;;7.10;99.90;;;;;;6125920;23;20029;-86
2022/01/25 13:48:32;;;;;;;12.65;8.45;;;7.20;99.90;;;;;;6195808;23;20487;-86
2022/01/25 13:51:04;;;;;;;15.55;9.00;;;7.10;99.90;;;;;;6220034;23;20008;-86
2022/01/25 13:53:30;;;;;;;12.70;9.13;;;7.20;99.90;;;;;;6246885;23;20004;-86
2022/01/25 13:55:58;;;;;;;14.85;8.90;;;7.10;99.90;;;;;;6246768;23;20008;-85
2022/01/25 13:58:27;;;;;;;13.25;8.73;;;7.20;99.90;;;;;;6246777;23;20063;-86
2022/01/25 14:00:55;;;;;;;14.43;9.30;;;7.10;99.90;;;;;;6246739;23;20038;-86
2022/01/25 14:03:31;;;;;;;16.92;9.07;;;7.10;99.90;;;;;;6219884;23;20337;-86
2022/01/25 14:05:57;;;;;;;15.13;9.55;;;7.10;99.90;;;;;;6219864;23;20015;-86
2022/01/25 14:08:39;;;;;;;14.75;9.20;;;7.10;99.90;;;;;;6220925;23;20444;-86
2022/01/25 14:11:31;;;;;;;15.00;9.25;;;7.10;99.90;;;;;;6219929;23;20004;-86
2022/01/25 14:22:31;;;;;;;14.55;9.35;;;7.00;99.90;;;;;;6247046;23;20015;-86
2022/01/25 14:24:57;;;;;;;15.43;9.82;;;7.00;99.90;;;;;;6219786;23;20007;-86
2022/01/25 14:27:28;;;;;;;13.88;9.55;;;6.90;99.90;;;;;;6219690;23;20456;-86
2022/01/25 14:29:55;;;;;;;13.95;9.75;;;6.80;99.90;;;;;;6219749;23;20050;-85
2022/01/25 14:32:32;;;;;;;14.68;9.60;;;6.80;99.90;;;;;;6220078;23;20011;-85
2022/01/25 14:35:05;;;;;;;13.27;9.43;;;6.70;99.90;;;;;;6219765;23;20004;-85
2022/01/25 14:37:31;;;;;;;14.98;9.73;;;6.60;99.90;;;;;;6219574;23;20004;-85
2022/01/25 14:40:11;;;;;;;14.85;9.48;;;6.50;99.90;;;;;;6246476;23;20079;-85
2022/01/25 14:42:38;;;;;;;15.32;9.98;;;6.50;99.90;;;;;;6246818;23;20001;-85
2022/01/25 14:45:07;;;;;;;18.92;10.63;;;6.40;99.90;;;;;;6246432;23;20032;-85
2022/01/25 14:47:38;;;;;;;16.33;11.07;;;6.40;99.90;;;;;;6219365;23;20444;-85
2022/01/25 14:50:18;;;;;;;16.63;10.98;;;6.30;99.90;;;;;;6219528;23;20130;-85
2022/01/25 14:53:20;;;;;;;16.48;10.85;;;6.20;99.90;;;;;;6246403;23;20027;-85
2022/01/25 14:55:47;;;;;;;15.73;10.00;;;6.10;99.90;;;;;;6070715;23;20050;-85
2022/01/25 15:00:50;;;;;;;16.00;10.50;;;6.00;99.90;;;;;;6246884;23;20004;-85
2022/01/25 15:03:17;;;;;;;16.52;10.30;;;6.00;99.90;;;;;;6246617;23;20079;-85
2022/01/25 15:05:45;;;;;;;16.10;10.07;;;5.90;99.90;;;;;;6246164;23;19996;-85
2022/01/25 15:08:12;;;;;;;17.05;10.35;;;5.80;99.90;;;;;;6219372;23;20004;-85
2022/01/25 15:10:43;;;;;;;17.00;10.48;;;5.80;99.90;;;;;;6219407;23;20069;-85
2022/01/25 15:13:09;;;;;;;15.00;10.25;;;5.70;99.90;;;;;;6246282;23;20007;-85
2022/01/25 15:15:54;;;;;;;17.50;10.75;;;5.70;99.90;;;;;;6219244;23;20008;-85